createdAt,value
2018-11-22T00:02:24.910Z,76.72
2018-11-22T00:04:56.235Z,76.77
2018-11-22T00:07:29.189Z,76.99
2018-11-22T00:10:00.747Z,76.78
2018-11-22T00:12:33.835Z,77.09
2018-11-22T00:15:06.031Z,76.85
2018-11-22T00:17:37.380Z,77.11
2018-11-22T00:20:08.793Z,76.67
2018-11-22T00:22:40.165Z,76.67
2018-11-22T00:25:13.054Z,76.71
2018-11-22T00:27:44.340Z,76.54
2018-11-22T00:30:18.262Z,76.71
2018-11-22T00:32:49.609Z,76.31
2018-11-22T00:35:21.386Z,76.12
2018-11-22T00:37:53.433Z,76.12
2018-11-22T00:40:26.282Z,76.35
2018-11-22T00:42:57.601Z,76.72
2018-11-22T00:45:30.065Z,76.57
2018-11-22T00:48:01.292Z,76.74
2018-11-22T00:50:32.576Z,76.60
2018-11-22T00:53:03.913Z,76.55
2018-11-22T00:55:35.213Z,76.71
2018-11-22T00:58:07.381Z,76.73
2018-11-22T01:00:39.137Z,76.72
2018-11-22T01:03:10.411Z,76.23
2018-11-22T01:05:41.690Z,76.33
2018-11-22T01:08:13.012Z,76.28
2018-11-22T01:10:44.228Z,76.11
2018-11-22T01:13:15.575Z,75.91
2018-11-22T01:15:47.769Z,75.90
2018-11-22T01:18:19.116Z,76.52
2018-11-22T01:20:50.336Z,76.25
2018-11-22T01:23:21.710Z,76.62
2018-11-22T01:25:53.199Z,76.66
2018-11-22T01:28:24.406Z,76.53
2018-11-22T01:30:56.193Z,76.48
2018-11-22T01:33:27.493Z,76.53
2018-11-22T01:35:58.829Z,76.35
2018-11-22T01:38:30.112Z,76.56
2018-11-22T01:41:01.770Z,76.81
2018-11-22T01:43:32.980Z,77.16
2018-11-22T01:46:04.378Z,77.32
2018-11-22T01:48:35.758Z,77.31
2018-11-22T01:51:07.469Z,77.26
2018-11-22T01:53:38.827Z,77.36
2018-11-22T01:56:10.188Z,77.35
2018-11-22T01:58:41.521Z,77.32
2018-11-22T02:01:12.884Z,77.40
2018-11-22T02:03:44.190Z,77.48
2018-11-22T02:06:15.491Z,77.34
2018-11-22T02:08:46.823Z,77.71
2018-11-22T02:11:18.210Z,77.54
2018-11-22T02:13:49.616Z,77.15
2018-11-22T02:16:20.888Z,77.08
2018-11-22T02:18:52.254Z,76.87
2018-11-22T02:21:23.670Z,76.62
2018-11-22T02:23:55.400Z,76.32
2018-11-22T02:26:26.946Z,76.59
2018-11-22T02:28:58.247Z,76.79
2018-11-22T02:31:35.122Z,76.70
2018-11-22T02:34:07.017Z,76.38
2018-11-22T02:36:38.442Z,76.20
2018-11-22T02:39:12.688Z,76.33
2018-11-22T02:41:44.718Z,76.42
2018-11-22T02:44:16.798Z,76.89
2018-11-22T02:46:48.352Z,77.18
2018-11-22T02:49:20.613Z,77.00
2018-11-22T02:51:51.924Z,76.70
2018-11-22T02:54:23.384Z,76.86
2018-11-22T02:56:54.743Z,76.80
2018-11-22T02:59:26.017Z,77.25
2018-11-22T03:01:57.911Z,77.26
2018-11-22T03:04:31.389Z,76.67
2018-11-22T03:07:03.024Z,76.39
2018-11-22T03:09:34.458Z,76.15
2018-11-22T03:12:07.154Z,75.86
2018-11-22T03:14:38.597Z,75.53
2018-11-22T03:17:10.027Z,75.23
2018-11-22T03:19:42.790Z,75.44
2018-11-22T03:22:14.140Z,75.70
2018-11-22T03:24:45.365Z,75.71
2018-11-22T03:27:16.683Z,75.63
2018-11-22T03:29:47.994Z,75.68
2018-11-22T03:32:19.723Z,75.66
2018-11-22T03:34:51.488Z,75.76
2018-11-22T03:37:22.836Z,75.15
2018-11-22T03:39:55.129Z,75.03
2018-11-22T03:42:26.706Z,75.30
2018-11-22T03:44:57.920Z,75.46
2018-11-22T03:47:29.314Z,75.64
2018-11-22T03:50:01.132Z,75.80
2018-11-22T03:52:32.807Z,75.70
2018-11-22T03:55:04.015Z,75.82
2018-11-22T03:57:35.325Z,76.08
2018-11-22T04:00:08.370Z,75.95
2018-11-22T04:02:40.022Z,75.81
2018-11-22T04:05:14.222Z,75.59
2018-11-22T04:07:45.403Z,75.66
2018-11-22T04:10:21.646Z,75.21
2018-11-22T04:12:52.979Z,74.53
2018-11-22T04:15:24.279Z,75.46
2018-11-22T04:17:55.336Z,75.48
2018-11-22T04:20:29.997Z,75.49
2018-11-22T04:23:01.073Z,75.91
2018-11-22T04:25:32.407Z,75.90
2018-11-22T04:28:03.652Z,75.50
2018-11-22T04:30:35.717Z,75.79
2018-11-22T04:33:07.080Z,76.07
2018-11-22T04:35:38.202Z,75.49
2018-11-22T04:38:09.413Z,75.87
2018-11-22T04:40:41.335Z,75.89
2018-11-22T04:43:12.999Z,75.79
2018-11-22T04:45:44.431Z,75.47
2018-11-22T04:48:15.529Z,75.54
2018-11-22T04:50:46.583Z,75.71
2018-11-22T04:53:17.725Z,75.65
2018-11-22T04:55:48.926Z,75.35
2018-11-22T04:58:20.569Z,75.50
2018-11-22T05:00:51.752Z,75.58
2018-11-22T05:03:22.897Z,75.69
2018-11-22T05:05:54.797Z,75.66
2018-11-22T05:08:27.001Z,76.07
2018-11-22T05:10:58.177Z,75.97
2018-11-22T05:13:29.265Z,75.91
2018-11-22T05:16:01.553Z,75.77
2018-11-22T05:18:32.715Z,75.96
2018-11-22T05:21:03.849Z,76.48
2018-11-22T05:23:35.244Z,77.00
2018-11-22T05:26:06.530Z,77.16
2018-11-22T05:28:37.748Z,77.93
2018-11-22T05:31:08.951Z,78.28
2018-11-22T05:33:40.007Z,78.76
2018-11-22T05:36:11.212Z,79.07
2018-11-22T05:38:42.444Z,79.10
2018-11-22T05:41:13.934Z,78.85
2018-11-22T05:43:45.465Z,78.91
2018-11-22T05:46:17.456Z,79.20
2018-11-22T05:48:48.987Z,79.58
2018-11-22T05:51:20.175Z,79.71
2018-11-22T05:53:51.286Z,80.07
2018-11-22T05:56:22.462Z,79.84
2018-11-22T05:58:53.709Z,80.02
2018-11-22T06:01:24.981Z,80.55
2018-11-22T06:03:56.065Z,80.45
2018-11-22T06:06:27.262Z,80.18
2018-11-22T06:08:58.636Z,80.20
2018-11-22T06:11:29.828Z,80.30
2018-11-22T06:14:01.212Z,81.06
2018-11-22T06:16:32.722Z,81.37
2018-11-22T06:19:03.941Z,81.76
2018-11-22T06:21:35.133Z,81.87
2018-11-22T06:24:06.608Z,81.95
2018-11-22T06:26:39.272Z,82.13
2018-11-22T06:29:09.942Z,82.35
2018-11-22T06:31:41.211Z,82.57
2018-11-22T06:34:12.458Z,82.30
2018-11-22T06:36:43.739Z,82.13
2018-11-22T06:39:15.157Z,81.97
2018-11-22T06:41:46.814Z,82.08
2018-11-22T06:44:18.274Z,82.15
2018-11-22T06:46:54.130Z,82.00
2018-11-22T06:49:25.270Z,82.38
2018-11-22T06:51:57.695Z,82.47
2018-11-22T06:54:28.969Z,82.73
2018-11-22T06:57:00.373Z,82.66
2018-11-22T06:59:33.375Z,82.62
2018-11-22T07:02:04.740Z,81.86
2018-11-22T07:04:36.078Z,81.89
2018-11-22T07:07:07.648Z,82.22
2018-11-22T07:09:38.931Z,82.10
2018-11-22T07:12:11.086Z,81.51
2018-11-22T07:14:42.601Z,81.76
2018-11-22T07:17:14.128Z,81.79
2018-11-22T07:19:45.550Z,81.19
2018-11-22T07:22:18.950Z,81.45
2018-11-22T07:24:48.497Z,81.28
2018-11-22T07:27:19.893Z,81.04
2018-11-22T07:29:52.198Z,80.84
2018-11-22T07:32:23.558Z,81.40
2018-11-22T07:34:55.412Z,81.59
2018-11-22T07:37:26.691Z,81.55
2018-11-22T07:39:57.894Z,81.92
2018-11-22T07:45:01.518Z,81.73
2018-11-22T07:47:35.184Z,82.00
2018-11-22T07:50:12.138Z,81.87
2018-11-22T07:52:43.425Z,82.11
2018-11-22T07:55:16.235Z,82.28
2018-11-22T07:57:48.438Z,82.26
2018-11-22T08:00:22.058Z,81.30
2018-11-22T08:02:56.823Z,81.24
2018-11-22T08:05:30.556Z,81.50
2018-11-22T08:08:01.922Z,81.36
2018-11-22T08:10:33.254Z,81.81
2018-11-22T08:13:04.692Z,81.88
2018-11-22T08:15:38.114Z,82.18
2018-11-22T08:18:10.134Z,82.01
2018-11-22T08:20:41.721Z,81.95
2018-11-22T08:23:13.071Z,82.17
2018-11-22T08:25:45.048Z,82.08
2018-11-22T08:28:16.516Z,81.67
2018-11-22T08:30:47.975Z,80.95
2018-11-22T08:33:19.276Z,81.13
2018-11-22T08:35:50.791Z,81.12
2018-11-22T08:38:22.241Z,80.72
2018-11-22T08:40:53.623Z,80.80
2018-11-22T08:43:25.677Z,80.98
2018-11-22T08:45:57.102Z,81.21
2018-11-22T08:48:28.326Z,80.98
2018-11-22T08:50:59.675Z,81.07
2018-11-22T08:53:36.964Z,80.69
2018-11-22T08:56:02.271Z,80.03
2018-11-22T08:58:33.632Z,80.63
2018-11-22T09:01:05.029Z,80.36
2018-11-22T09:03:37.277Z,80.38
2018-11-22T09:06:09.206Z,81.02
2018-11-22T09:08:40.582Z,80.49
2018-11-22T09:11:12.444Z,80.68
2018-11-22T09:13:43.284Z,80.63
2018-11-22T09:16:14.141Z,80.12
2018-11-22T09:18:44.977Z,80.02
2018-11-22T09:21:53.540Z,80.64
2018-11-22T09:24:43.734Z,80.42
2018-11-22T09:27:26.609Z,80.48
2018-11-22T09:30:48.105Z,80.60
2018-11-22T09:33:26.433Z,80.63
2018-11-22T09:36:35.383Z,80.73
2018-11-22T09:39:25.229Z,80.27
2018-11-22T09:42:15.210Z,80.06
2018-11-22T09:45:30.196Z,79.93
2018-11-22T09:48:20.027Z,79.19
2018-11-22T09:51:09.886Z,79.41
2018-11-22T09:54:07.245Z,78.70
2018-11-22T09:56:57.215Z,77.90
2018-11-22T09:59:47.072Z,77.85
2018-11-22T10:02:36.932Z,77.66
2018-11-22T10:05:45.949Z,77.30
2018-11-22T10:08:35.908Z,76.58
2018-11-22T10:11:26.573Z,76.97
2018-11-22T10:14:16.401Z,77.23
2018-11-22T10:17:06.267Z,76.88
2018-11-22T10:22:53.642Z,75.06
2018-11-22T10:25:43.483Z,74.86
2018-11-22T10:31:42.349Z,73.99
2018-11-22T10:34:33.043Z,73.64
2018-11-22T10:40:20.056Z,71.65
2018-11-22T10:43:28.958Z,70.40
2018-11-22T10:46:37.867Z,71.26
2018-11-22T10:49:27.685Z,70.29
2018-11-22T10:55:15.135Z,69.61
2018-11-22T10:58:04.985Z,68.41
2018-11-22T11:01:13.447Z,68.76
2018-11-22T11:04:21.917Z,69.52
2018-11-22T11:07:30.342Z,69.87
2018-11-22T11:10:39.280Z,68.79
2018-11-22T11:13:29.144Z,68.39
2018-11-22T11:16:19.053Z,67.75
2018-11-22T11:19:08.858Z,67.40
2018-11-22T11:22:17.796Z,67.53
2018-11-22T11:24:59.926Z,67.14
2018-11-22T11:27:50.039Z,67.33
2018-11-22T11:30:40.036Z,66.59
2018-11-22T11:33:29.878Z,66.34
2018-11-22T11:36:20.075Z,66.89
2018-11-22T11:39:11.208Z,67.15
2018-11-22T11:41:42.490Z,67.15
2018-11-22T11:44:13.527Z,67.10
2018-11-22T11:46:44.454Z,67.02
2018-11-22T11:49:15.541Z,67.56
2018-11-22T11:51:46.343Z,66.92
2018-11-22T11:54:17.184Z,66.85
2018-11-22T11:56:48.306Z,67.14
2018-11-22T11:59:19.139Z,67.85
2018-11-22T12:01:49.973Z,68.14
2018-11-22T12:04:20.760Z,67.55
2018-11-22T12:06:51.569Z,67.16
2018-11-22T12:09:22.478Z,67.24
2018-11-22T12:11:53.615Z,67.38
2018-11-22T12:14:24.526Z,67.76
2018-11-22T12:16:55.373Z,68.03
2018-11-22T12:19:26.173Z,66.60
2018-11-22T12:21:57.069Z,65.98
2018-11-22T12:24:28.423Z,65.42
2018-11-22T12:26:59.356Z,64.73
2018-11-22T12:29:30.242Z,64.60
2018-11-22T12:32:32.769Z,63.68
2018-11-22T12:35:21.044Z,63.39
2018-11-22T12:38:09.388Z,63.47
2018-11-22T12:40:40.229Z,63.79
2018-11-22T12:43:11.173Z,63.81
2018-11-22T12:45:42.063Z,62.09
2018-11-22T12:48:12.947Z,62.21
2018-11-22T12:50:43.777Z,62.69
2018-11-22T12:53:14.667Z,62.85
2018-11-22T12:55:45.559Z,63.13
2018-11-22T12:58:16.353Z,63.01
2018-11-22T13:00:47.160Z,64.66
2018-11-22T13:03:18.081Z,64.96
2018-11-22T13:05:49.261Z,65.72
2018-11-22T13:08:20.157Z,66.90
2018-11-22T13:10:51.188Z,69.15
2018-11-22T13:13:21.992Z,67.22
2018-11-22T13:15:52.984Z,65.79
2018-11-22T13:18:23.984Z,64.54
2018-11-22T13:20:54.859Z,64.32
2018-11-22T13:23:26.235Z,61.96
2018-11-22T13:25:57.067Z,60.47
2018-11-22T13:28:27.937Z,60.15
2018-11-22T13:30:59.215Z,60.45
2018-11-22T13:33:30.078Z,59.71
2018-11-22T13:36:00.992Z,59.58
2018-11-22T13:38:31.855Z,59.54
2018-11-22T13:41:02.759Z,58.76
2018-11-22T13:43:33.605Z,58.99
2018-11-22T13:46:05.379Z,59.22
2018-11-22T13:48:36.200Z,60.09
2018-11-22T13:51:07.206Z,61.32
2018-11-22T13:53:38.059Z,60.79
2018-11-22T13:56:09.101Z,62.34
2018-11-22T13:58:39.906Z,62.62
2018-11-22T14:01:10.720Z,63.55
2018-11-22T14:03:41.652Z,64.16
2018-11-22T14:06:12.890Z,65.45
2018-11-22T14:08:43.705Z,67.53
2018-11-22T14:11:15.326Z,66.34
2018-11-22T14:13:46.375Z,66.96
2018-11-22T14:16:17.201Z,67.03
2018-11-22T14:18:48.099Z,67.57
2018-11-22T14:21:18.943Z,67.32
2018-11-22T14:23:49.810Z,67.54
2018-11-22T14:26:20.699Z,67.37
2018-11-22T14:28:51.520Z,67.43
2018-11-22T14:31:22.333Z,67.66
2018-11-22T14:33:53.358Z,69.21
2018-11-22T14:36:24.165Z,69.33
2018-11-22T14:38:54.982Z,69.36
2018-11-22T14:41:25.801Z,68.89
2018-11-22T14:43:56.733Z,69.50
2018-11-22T14:46:27.573Z,69.46
2018-11-22T14:48:58.353Z,69.63
2018-11-22T14:51:50.513Z,70.06
2018-11-22T14:54:21.351Z,70.72
2018-11-22T14:56:52.158Z,70.62
2018-11-22T14:59:22.967Z,70.28
2018-11-22T15:01:53.768Z,70.85
2018-11-22T15:04:24.576Z,71.09
2018-11-22T15:06:55.475Z,71.90
2018-11-22T15:09:26.323Z,71.93
2018-11-22T15:11:57.220Z,72.21
2018-11-22T15:14:28.109Z,72.18
2018-11-22T15:16:58.936Z,72.64
2018-11-22T15:19:29.750Z,72.63
2018-11-22T15:22:00.549Z,72.11
2018-11-22T15:24:31.507Z,72.90
2018-11-22T15:27:02.478Z,72.71
2018-11-22T15:29:33.267Z,73.39
2018-11-22T15:32:04.092Z,73.79
2018-11-22T15:34:34.936Z,73.89
2018-11-22T15:37:06.032Z,73.84
2018-11-22T15:39:36.812Z,74.51
2018-11-22T15:42:08.037Z,74.47
2018-11-22T15:44:39.391Z,74.55
2018-11-22T15:47:10.356Z,74.92
2018-11-22T15:49:41.418Z,75.04
2018-11-22T15:52:12.429Z,74.71
2018-11-22T15:54:43.518Z,74.96
2018-11-22T15:57:14.770Z,75.08
2018-11-22T15:59:45.707Z,75.35
2018-11-22T16:02:16.892Z,75.92
2018-11-22T16:04:48.146Z,76.14
2018-11-22T16:07:18.980Z,76.17
2018-11-22T16:09:49.958Z,76.22
2018-11-22T16:12:21.463Z,76.62
2018-11-22T16:14:52.373Z,76.75
2018-11-22T16:17:23.183Z,76.88
2018-11-22T16:19:54.234Z,77.30
2018-11-22T16:22:25.114Z,77.26
2018-11-22T16:24:56.098Z,77.37
2018-11-22T16:27:27.120Z,77.25
2018-11-22T16:29:57.950Z,77.57
2018-11-22T16:32:28.820Z,77.84
2018-11-22T16:34:59.760Z,78.17
2018-11-22T16:37:30.640Z,77.84
2018-11-22T16:40:01.576Z,78.28
2018-11-22T16:42:32.690Z,77.36
2018-11-22T16:45:03.560Z,77.58
2018-11-22T16:47:34.366Z,78.00
2018-11-22T16:50:05.564Z,78.57
2018-11-22T16:52:36.426Z,77.92
2018-11-22T16:55:08.538Z,78.49
2018-11-22T16:57:39.717Z,79.11
2018-11-22T17:00:22.198Z,78.56
2018-11-22T17:02:54.085Z,78.89
2018-11-22T17:05:25.231Z,79.16
2018-11-22T17:07:56.354Z,79.32
2018-11-22T17:10:28.395Z,79.43
2018-11-22T17:13:00.371Z,79.44
2018-11-22T17:15:32.856Z,79.60
2018-11-22T17:18:04.506Z,79.52
2018-11-22T17:20:35.761Z,79.92
2018-11-22T17:23:08.013Z,80.03
2018-11-22T17:25:39.490Z,80.34
2018-11-22T17:28:11.112Z,79.65
2018-11-22T17:30:43.405Z,79.85
2018-11-22T17:33:14.347Z,80.71
2018-11-22T17:35:45.548Z,81.20
2018-11-22T17:38:16.572Z,81.28
2018-11-22T17:41:26.334Z,81.30
2018-11-22T17:44:16.479Z,81.30
2018-11-22T17:50:16.570Z,81.51
2018-11-22T17:53:26.319Z,81.48
2018-11-22T17:56:16.172Z,81.78
2018-11-22T17:59:06.389Z,81.76
2018-11-22T18:01:56.505Z,81.48
2018-11-22T18:07:42.379Z,82.00
2018-11-22T18:10:51.372Z,82.23
2018-11-22T18:13:59.918Z,82.01
2018-11-22T18:17:09.261Z,82.23
2018-11-22T18:19:59.206Z,82.43
2018-11-22T18:23:11.447Z,82.48
2018-11-22T18:26:17.990Z,82.89
2018-11-22T18:29:07.851Z,83.24
2018-11-22T18:31:57.747Z,83.33
2018-11-22T18:34:48.009Z,83.11
2018-11-22T18:37:19.943Z,82.80
2018-11-22T18:39:51.361Z,82.93
2018-11-22T18:42:22.844Z,83.08
2018-11-22T18:44:54.736Z,83.13
2018-11-22T18:47:26.055Z,83.15
2018-11-22T18:49:57.390Z,83.33
2018-11-22T18:52:28.632Z,83.37
2018-11-22T18:55:00.220Z,83.14
2018-11-22T18:57:31.592Z,83.54
2018-11-22T19:00:03.057Z,83.60
2018-11-22T19:02:34.669Z,82.88
2018-11-22T19:05:11.889Z,83.06
2018-11-22T19:07:44.289Z,83.75
2018-11-22T19:10:18.721Z,83.37
2018-11-22T19:12:51.375Z,83.80
2018-11-22T19:15:24.640Z,83.85
2018-11-22T19:17:56.173Z,84.66
2018-11-22T19:20:31.665Z,84.40
2018-11-22T19:23:03.876Z,84.53
2018-11-22T19:25:35.253Z,84.14
2018-11-22T19:28:07.885Z,84.32
2018-11-22T19:30:44.553Z,84.30
2018-11-22T19:33:17.952Z,84.58
2018-11-22T19:35:51.194Z,84.55
2018-11-22T19:38:23.177Z,85.10
2018-11-22T19:40:54.609Z,85.86
2018-11-22T19:43:26.051Z,85.77
2018-11-22T19:45:57.413Z,85.16
2018-11-22T19:48:28.840Z,85.10
2018-11-22T19:51:05.565Z,85.46
2018-11-22T19:53:32.714Z,85.27
2018-11-22T19:56:04.219Z,85.08
2018-11-22T19:58:35.747Z,85.25
2018-11-22T20:01:07.934Z,85.10
2018-11-22T20:03:39.591Z,84.92
2018-11-22T20:06:11.359Z,85.02
2018-11-22T20:08:42.668Z,84.85
2018-11-22T20:11:14.181Z,84.61
2018-11-22T20:13:46.814Z,84.39
2018-11-22T20:16:18.309Z,84.14
2018-11-22T20:18:50.751Z,84.62
2018-11-22T20:21:22.221Z,84.62
2018-11-22T20:23:53.512Z,84.50
2018-11-22T20:26:24.940Z,84.35
2018-11-22T20:28:56.285Z,84.14
2018-11-22T20:31:28.104Z,84.24
2018-11-22T20:33:59.560Z,83.95
2018-11-22T20:36:30.982Z,83.63
2018-11-22T20:39:02.369Z,83.66
2018-11-22T20:41:33.692Z,83.76
2018-11-22T20:44:05.346Z,83.89
2018-11-22T20:46:37.182Z,83.92
2018-11-22T20:49:08.712Z,83.89
2018-11-22T20:51:40.345Z,83.98
2018-11-22T20:54:14.655Z,83.87
2018-11-22T20:56:46.055Z,83.76
2018-11-22T20:59:19.504Z,84.07
2018-11-22T21:01:51.707Z,84.15
2018-11-22T21:04:23.284Z,84.15
2018-11-22T21:06:54.796Z,83.54
2018-11-22T21:09:26.224Z,84.07
2018-11-22T21:11:57.686Z,84.61
2018-11-22T21:14:28.845Z,84.52
2018-11-22T21:17:00.730Z,84.43
2018-11-22T21:19:31.890Z,84.29
2018-11-22T21:22:03.308Z,84.35
2018-11-22T21:24:35.632Z,84.60
2018-11-22T21:27:08.105Z,84.45
2018-11-22T21:29:39.348Z,84.17
2018-11-22T21:32:10.606Z,84.28
2018-11-22T21:34:42.385Z,84.32
2018-11-22T21:37:13.609Z,84.04
2018-11-22T21:39:45.126Z,84.12
2018-11-22T21:42:16.434Z,84.56
2018-11-22T21:44:47.748Z,84.42
2018-11-22T21:47:19.288Z,84.71
2018-11-22T21:49:50.444Z,84.85
2018-11-22T21:52:21.855Z,84.66
2018-11-22T21:54:53.390Z,84.78
2018-11-22T21:57:24.680Z,85.03
2018-11-22T21:59:56.021Z,84.08
2018-11-22T22:02:27.659Z,84.68
2018-11-22T22:04:59.024Z,84.60
2018-11-22T22:07:30.289Z,84.73
2018-11-22T22:10:01.702Z,84.56
2018-11-22T22:12:32.885Z,85.02
2018-11-22T22:15:04.644Z,85.15
2018-11-22T22:17:36.274Z,85.23
2018-11-22T22:20:11.418Z,85.34
2018-11-22T22:22:49.975Z,84.95
2018-11-22T22:25:23.435Z,84.95
2018-11-22T22:27:56.065Z,85.09
2018-11-22T22:30:28.781Z,85.12
2018-11-22T22:33:01.790Z,85.50
2018-11-22T22:35:33.553Z,85.18
2018-11-22T22:38:05.122Z,85.43
2018-11-22T22:40:36.713Z,85.31
2018-11-22T22:43:08.024Z,85.45
2018-11-22T22:45:39.284Z,85.52
2018-11-22T22:48:11.109Z,85.55
2018-11-22T22:50:42.469Z,85.90
2018-11-22T22:53:13.922Z,85.98
2018-11-22T22:55:45.507Z,85.86
2018-11-22T22:58:16.634Z,85.35
2018-11-22T23:00:51.419Z,85.55
2018-11-22T23:03:22.572Z,86.22
2018-11-22T23:05:54.011Z,85.98
2018-11-22T23:08:26.038Z,85.39
2018-11-22T23:10:57.691Z,86.27
2018-11-22T23:13:28.689Z,85.57
2018-11-22T23:16:01.094Z,85.48
2018-11-22T23:18:32.519Z,85.89
2018-11-22T23:21:03.744Z,85.52
2018-11-22T23:23:35.011Z,86.28
2018-11-22T23:26:06.462Z,86.23
2018-11-22T23:28:37.851Z,86.01
2018-11-22T23:31:10.191Z,85.88
2018-11-22T23:33:41.594Z,85.70
2018-11-22T23:36:12.685Z,86.14
2018-11-22T23:38:43.990Z,85.93
2018-11-22T23:41:15.264Z,85.55
2018-11-22T23:43:46.628Z,85.64
2018-11-22T23:46:18.180Z,85.53
2018-11-22T23:48:50.342Z,84.65
2018-11-22T23:51:21.837Z,85.43
2018-11-22T23:53:54.318Z,85.33
2018-11-22T23:56:27.866Z,84.78
2018-11-22T23:58:59.299Z,84.98
